sensor_id;sensor_type;location;lat;lon;timestamp;temperature;humidity
45906;DHT22;31619;49.008;12.106;2023-04-28T00:02:00;9.70;99.90
45906;DHT22;31619;49.008;12.106;2023-04-28T00:04:26;9.70;99.90
45906;DHT22;31619;49.008;12.106;2023-04-28T00:06:52;9.60;99.90
45906;DHT22;31619;49.008;12.106;2023-04-28T00:09:17;9.70;99.90
45906;DHT22;31619;49.008;12.106;2023-04-28T00:11:44;9.70;99.90
45906;DHT22;31619;49.008;12.106;2023-04-28T00:14:11;9.70;99.90
45906;DHT22;31619;49.008;12.106;2023-04-28T00:16:36;9.60;99.90
45906;DHT22;31619;49.008;12.106;2023-04-28T00:19:02;9.60;99.90
45906;DHT22;31619;49.008;12.106;2023-04-28T00:21:27;9.60;99.90
45906;DHT22;31619;49.008;12.106;2023-04-28T00:23:53;9.60;99.90
45906;DHT22;31619;49.008;12.106;2023-04-28T00:26:19;9.60;99.90
45906;DHT22;31619;49.008;12.106;2023-04-28T00:28:45;9.50;99.90
45906;DHT22;31619;49.008;12.106;2023-04-28T00:31:11;9.60;99.90
45906;DHT22;31619;49.008;12.106;2023-04-28T00:33:41;9.50;99.90
45906;DHT22;31619;49.008;12.106;2023-04-28T00:36:07;9.50;99.90
45906;DHT22;31619;49.008;12.106;2023-04-28T00:38:33;9.50;99.90
45906;DHT22;31619;49.008;12.106;2023-04-28T00:40:58;9.50;99.90
45906;DHT22;31619;49.008;12.106;2023-04-28T00:43:24;9.50;99.90
45906;DHT22;31619;49.008;12.106;2023-04-28T00:45:50;9.50;99.90
45906;DHT22;31619;49.008;12.106;2023-04-28T00:48:16;9.50;99.90
45906;DHT22;31619;49.008;12.106;2023-04-28T00:50:43;9.50;99.90
45906;DHT22;31619;49.008;12.106;2023-04-28T00:53:12;9.50;99.90
45906;DHT22;31619;49.008;12.106;2023-04-28T00:55:39;9.40;99.90
45906;DHT22;31619;49.008;12.106;2023-04-28T00:58:05;9.40;99.90
45906;DHT22;31619;49.008;12.106;2023-04-28T01:00:31;9.40;99.90
45906;DHT22;31619;49.008;12.106;2023-04-28T01:02:57;9.30;99.90
45906;DHT22;31619;49.008;12.106;2023-04-28T01:05:27;9.30;99.90
45906;DHT22;31619;49.008;12.106;2023-04-28T01:07:53;9.30;99.90
45906;DHT22;31619;49.008;12.106;2023-04-28T01:10:19;9.30;99.90
45906;DHT22;31619;49.008;12.106;2023-04-28T01:12:45;9.30;99.90
45906;DHT22;31619;49.008;12.106;2023-04-28T01:15:15;9.30;99.90
45906;DHT22;31619;49.008;12.106;2023-04-28T01:17:41;9.30;99.90
45906;DHT22;31619;49.008;12.106;2023-04-28T01:20:07;9.30;99.90
45906;DHT22;31619;49.008;12.106;2023-04-28T01:22:33;9.30;99.90
45906;DHT22;31619;49.008;12.106;2023-04-28T01:24:58;9.30;99.90
45906;DHT22;31619;49.008;12.106;2023-04-28T01:27:24;9.30;99.90
45906;DHT22;31619;49.008;12.106;2023-04-28T01:29:50;9.30;99.90
45906;DHT22;31619;49.008;12.106;2023-04-28T01:32:16;9.40;99.90
45906;DHT22;31619;49.008;12.106;2023-04-28T01:34:41;9.40;99.90
45906;DHT22;31619;49.008;12.106;2023-04-28T01:37:07;9.40;99.90
45906;DHT22;31619;49.008;12.106;2023-04-28T01:39:32;9.30;99.90
45906;DHT22;31619;49.008;12.106;2023-04-28T01:41:59;9.40;99.90
45906;DHT22;31619;49.008;12.106;2023-04-28T01:44:25;9.40;99.90
45906;DHT22;31619;49.008;12.106;2023-04-28T01:46:50;9.40;99.90
45906;DHT22;31619;49.008;12.106;2023-04-28T01:49:16;9.40;99.90
45906;DHT22;31619;49.008;12.106;2023-04-28T01:51:41;9.30;99.90
45906;DHT22;31619;49.008;12.106;2023-04-28T01:54:07;9.30;99.90
45906;DHT22;31619;49.008;12.106;2023-04-28T01:56:33;9.30;99.90
45906;DHT22;31619;49.008;12.106;2023-04-28T01:58:58;9.30;99.90
45906;DHT22;31619;49.008;12.106;2023-04-28T02:01:24;9.40;99.90
45906;DHT22;31619;49.008;12.106;2023-04-28T02:03:49;9.30;99.90
45906;DHT22;31619;49.008;12.106;2023-04-28T02:06:15;9.30;99.90
45906;DHT22;31619;49.008;12.106;2023-04-28T02:08:41;9.30;99.90
45906;DHT22;31619;49.008;12.106;2023-04-28T02:11:07;9.30;99.90
45906;DHT22;31619;49.008;12.106;2023-04-28T02:13:32;9.30;99.90
45906;DHT22;31619;49.008;12.106;2023-04-28T02:16:01;9.30;99.90
45906;DHT22;31619;49.008;12.106;2023-04-28T02:18:27;9.30;99.90
45906;DHT22;31619;49.008;12.106;2023-04-28T02:20:52;9.30;99.90
45906;DHT22;31619;49.008;12.106;2023-04-28T02:23:18;9.30;99.90
45906;DHT22;31619;49.008;12.106;2023-04-28T02:25:43;9.30;99.90
45906;DHT22;31619;49.008;12.106;2023-04-28T02:28:09;9.30;99.90
45906;DHT22;31619;49.008;12.106;2023-04-28T02:30:35;9.30;99.90
45906;DHT22;31619;49.008;12.106;2023-04-28T02:33:00;9.20;99.90
45906;DHT22;31619;49.008;12.106;2023-04-28T02:35:26;9.20;99.90
45906;DHT22;31619;49.008;12.106;2023-04-28T02:37:52;9.20;99.90
45906;DHT22;31619;49.008;12.106;2023-04-28T02:40:18;9.20;99.90
45906;DHT22;31619;49.008;12.106;2023-04-28T02:42:43;9.20;99.90
45906;DHT22;31619;49.008;12.106;2023-04-28T02:45:09;9.10;99.90
45906;DHT22;31619;49.008;12.106;2023-04-28T02:47:35;9.10;99.90
45906;DHT22;31619;49.008;12.106;2023-04-28T02:50:01;9.10;99.90
45906;DHT22;31619;49.008;12.106;2023-04-28T02:52:27;9.10;99.90
45906;DHT22;31619;49.008;12.106;2023-04-28T02:54:52;9.10;99.90
45906;DHT22;31619;49.008;12.106;2023-04-28T02:57:21;9.10;99.90
45906;DHT22;31619;49.008;12.106;2023-04-28T02:59:47;9.10;99.90
45906;DHT22;31619;49.008;12.106;2023-04-28T03:02:12;9.00;99.90
45906;DHT22;31619;49.008;12.106;2023-04-28T03:04:38;9.10;99.90
45906;DHT22;31619;49.008;12.106;2023-04-28T03:07:04;9.00;99.90
45906;DHT22;31619;49.008;12.106;2023-04-28T03:09:29;9.10;99.90
45906;DHT22;31619;49.008;12.106;2023-04-28T03:11:55;9.00;99.90
45906;DHT22;31619;49.008;12.106;2023-04-28T03:14:21;9.10;99.90
45906;DHT22;31619;49.008;12.106;2023-04-28T03:16:46;9.00;99.90
45906;DHT22;31619;49.008;12.106;2023-04-28T03:19:12;9.10;99.90
45906;DHT22;31619;49.008;12.106;2023-04-28T03:21:37;9.00;99.90
45906;DHT22;31619;49.008;12.106;2023-04-28T03:24:03;9.10;99.90
45906;DHT22;31619;49.008;12.106;2023-04-28T03:26:29;9.10;99.90
45906;DHT22;31619;49.008;12.106;2023-04-28T03:28:54;9.10;99.90
45906;DHT22;31619;49.008;12.106;2023-04-28T03:31:21;9.10;99.90
45906;DHT22;31619;49.008;12.106;2023-04-28T03:33:46;9.10;99.90
45906;DHT22;31619;49.008;12.106;2023-04-28T03:36:12;9.10;99.90
45906;DHT22;31619;49.008;12.106;2023-04-28T03:38:38;9.10;99.90
45906;DHT22;31619;49.008;12.106;2023-04-28T03:41:03;9.10;99.90
45906;DHT22;31619;49.008;12.106;2023-04-28T03:43:29;9.00;99.90
45906;DHT22;31619;49.008;12.106;2023-04-28T03:45:54;9.10;99.90
45906;DHT22;31619;49.008;12.106;2023-04-28T03:48:20;9.00;99.90
45906;DHT22;31619;49.008;12.106;2023-04-28T03:50:46;9.00;99.90
45906;DHT22;31619;49.008;12.106;2023-04-28T03:53:11;9.00;99.90
45906;DHT22;31619;49.008;12.106;2023-04-28T03:55:37;9.00;99.90
45906;DHT22;31619;49.008;12.106;2023-04-28T03:58:03;9.00;99.90
45906;DHT22;31619;49.008;12.106;2023-04-28T04:00:28;9.00;99.90
45906;DHT22;31619;49.008;12.106;2023-04-28T04:02:54;9.00;99.90
45906;DHT22;31619;49.008;12.106;2023-04-28T04:05:20;9.00;99.90
45906;DHT22;31619;49.008;12.106;2023-04-28T04:07:45;9.00;99.90
45906;DHT22;31619;49.008;12.106;2023-04-28T04:10:11;9.10;99.90
45906;DHT22;31619;49.008;12.106;2023-04-28T04:12:36;9.10;99.90
45906;DHT22;31619;49.008;12.106;2023-04-28T04:15:02;9.10;99.90
45906;DHT22;31619;49.008;12.106;2023-04-28T04:17:28;9.20;99.90
45906;DHT22;31619;49.008;12.106;2023-04-28T04:19:53;9.20;99.90
45906;DHT22;31619;49.008;12.106;2023-04-28T04:22:19;9.20;99.90
45906;DHT22;31619;49.008;12.106;2023-04-28T04:24:45;9.30;99.90
45906;DHT22;31619;49.008;12.106;2023-04-28T04:27:10;9.30;99.90
45906;DHT22;31619;49.008;12.106;2023-04-28T04:29:36;9.40;99.90
45906;DHT22;31619;49.008;12.106;2023-04-28T04:32:01;9.40;99.90
45906;DHT22;31619;49.008;12.106;2023-04-28T04:34:27;9.40;99.90
45906;DHT22;31619;49.008;12.106;2023-04-28T04:36:52;9.50;99.90
45906;DHT22;31619;49.008;12.106;2023-04-28T04:39:18;9.50;99.90
45906;DHT22;31619;49.008;12.106;2023-04-28T04:41:44;9.50;99.90
45906;DHT22;31619;49.008;12.106;2023-04-28T04:44:09;9.60;99.90
45906;DHT22;31619;49.008;12.106;2023-04-28T04:46:35;9.60;99.90
45906;DHT22;31619;49.008;12.106;2023-04-28T04:49:01;9.70;99.90
45906;DHT22;31619;49.008;12.106;2023-04-28T04:51:27;9.70;99.90
45906;DHT22;31619;49.008;12.106;2023-04-28T04:53:53;9.70;99.90
45906;DHT22;31619;49.008;12.106;2023-04-28T04:56:19;9.70;99.90
45906;DHT22;31619;49.008;12.106;2023-04-28T04:58:45;9.80;99.90
45906;DHT22;31619;49.008;12.106;2023-04-28T05:01:11;9.80;99.90
45906;DHT22;31619;49.008;12.106;2023-04-28T05:03:36;9.90;99.90
45906;DHT22;31619;49.008;12.106;2023-04-28T05:06:02;9.90;99.90
45906;DHT22;31619;49.008;12.106;2023-04-28T05:08:28;10.00;99.90
45906;DHT22;31619;49.008;12.106;2023-04-28T05:10:54;10.10;99.90
45906;DHT22;31619;49.008;12.106;2023-04-28T05:13:20;10.10;99.90
45906;DHT22;31619;49.008;12.106;2023-04-28T05:15:45;10.20;99.90
45906;DHT22;31619;49.008;12.106;2023-04-28T05:18:11;10.30;99.90
45906;DHT22;31619;49.008;12.106;2023-04-28T05:20:38;10.40;99.90
45906;DHT22;31619;49.008;12.106;2023-04-28T05:23:04;10.50;99.90
45906;DHT22;31619;49.008;12.106;2023-04-28T05:25:30;10.50;99.90
45906;DHT22;31619;49.008;12.106;2023-04-28T05:27:56;10.70;99.90
45906;DHT22;31619;49.008;12.106;2023-04-28T05:30:21;10.70;99.90
45906;DHT22;31619;49.008;12.106;2023-04-28T05:32:47;10.80;99.90
45906;DHT22;31619;49.008;12.106;2023-04-28T05:35:12;10.90;99.90
45906;DHT22;31619;49.008;12.106;2023-04-28T05:37:39;11.00;99.90
45906;DHT22;31619;49.008;12.106;2023-04-28T05:40:08;11.10;99.90
45906;DHT22;31619;49.008;12.106;2023-04-28T05:42:33;11.20;99.90
45906;DHT22;31619;49.008;12.106;2023-04-28T05:44:59;11.30;99.90
45906;DHT22;31619;49.008;12.106;2023-04-28T05:47:25;11.40;99.90
45906;DHT22;31619;49.008;12.106;2023-04-28T05:49:50;11.30;99.90
45906;DHT22;31619;49.008;12.106;2023-04-28T05:52:16;11.30;99.90
45906;DHT22;31619;49.008;12.106;2023-04-28T05:54:42;11.40;99.90
45906;DHT22;31619;49.008;12.106;2023-04-28T05:57:07;11.50;99.90
45906;DHT22;31619;49.008;12.106;2023-04-28T05:59:33;11.50;99.90
45906;DHT22;31619;49.008;12.106;2023-04-28T06:01:59;11.50;99.70
45906;DHT22;31619;49.008;12.106;2023-04-28T06:04:24;11.50;99.70
45906;DHT22;31619;49.008;12.106;2023-04-28T06:06:51;11.50;99.90
45906;DHT22;31619;49.008;12.106;2023-04-28T06:09:16;11.50;99.90
45906;DHT22;31619;49.008;12.106;2023-04-28T06:11:42;11.50;99.90
45906;DHT22;31619;49.008;12.106;2023-04-28T06:14:07;11.50;99.90
45906;DHT22;31619;49.008;12.106;2023-04-28T06:16:33;11.50;99.90
45906;DHT22;31619;49.008;12.106;2023-04-28T06:18:58;11.50;99.40
45906;DHT22;31619;49.008;12.106;2023-04-28T06:21:24;11.50;99.60
45906;DHT22;31619;49.008;12.106;2023-04-28T06:23:51;11.50;99.40
45906;DHT22;31619;49.008;12.106;2023-04-28T06:26:17;11.50;99.70
45906;DHT22;31619;49.008;12.106;2023-04-28T06:28:42;11.60;99.90
45906;DHT22;31619;49.008;12.106;2023-04-28T06:31:08;11.60;99.50
45906;DHT22;31619;49.008;12.106;2023-04-28T06:33:34;11.60;98.90
45906;DHT22;31619;49.008;12.106;2023-04-28T06:36:00;11.60;99.20
45906;DHT22;31619;49.008;12.106;2023-04-28T06:38:25;11.50;98.90
45906;DHT22;31619;49.008;12.106;2023-04-28T06:40:51;11.40;99.20
45906;DHT22;31619;49.008;12.106;2023-04-28T06:43:17;11.40;99.40
45906;DHT22;31619;49.008;12.106;2023-04-28T06:45:43;11.40;99.40
45906;DHT22;31619;49.008;12.106;2023-04-28T06:48:08;11.40;99.70
45906;DHT22;31619;49.008;12.106;2023-04-28T06:50:35;11.40;99.40
45906;DHT22;31619;49.008;12.106;2023-04-28T06:53:01;11.50;99.40
45906;DHT22;31619;49.008;12.106;2023-04-28T06:55:27;11.50;99.30
45906;DHT22;31619;49.008;12.106;2023-04-28T06:57:52;11.50;99.40
45906;DHT22;31619;49.008;12.106;2023-04-28T07:00:18;11.50;99.10
45906;DHT22;31619;49.008;12.106;2023-04-28T07:02:44;11.50;99.30
45906;DHT22;31619;49.008;12.106;2023-04-28T07:05:09;11.50;99.50
45906;DHT22;31619;49.008;12.106;2023-04-28T07:07:35;11.50;99.40
45906;DHT22;31619;49.008;12.106;2023-04-28T07:10:04;11.50;99.70
45906;DHT22;31619;49.008;12.106;2023-04-28T07:12:29;11.60;99.80
45906;DHT22;31619;49.008;12.106;2023-04-28T07:14:55;11.70;99.90
45906;DHT22;31619;49.008;12.106;2023-04-28T07:17:21;11.70;99.90
45906;DHT22;31619;49.008;12.106;2023-04-28T07:19:46;11.80;99.90
45906;DHT22;31619;49.008;12.106;2023-04-28T07:22:15;11.90;99.90
45906;DHT22;31619;49.008;12.106;2023-04-28T07:24:43;11.90;99.90
45906;DHT22;31619;49.008;12.106;2023-04-28T07:27:08;11.90;99.90
45906;DHT22;31619;49.008;12.106;2023-04-28T07:29:34;11.80;99.90
45906;DHT22;31619;49.008;12.106;2023-04-28T07:32:00;11.80;99.90
45906;DHT22;31619;49.008;12.106;2023-04-28T07:34:27;11.70;99.90
45906;DHT22;31619;49.008;12.106;2023-04-28T07:36:53;11.70;99.90
45906;DHT22;31619;49.008;12.106;2023-04-28T07:39:19;11.40;99.90
45906;DHT22;31619;49.008;12.106;2023-04-28T07:41:44;11.30;99.90
45906;DHT22;31619;49.008;12.106;2023-04-28T07:44:10;11.20;99.90
45906;DHT22;31619;49.008;12.106;2023-04-28T07:46:36;11.00;99.90
45906;DHT22;31619;49.008;12.106;2023-04-28T07:49:02;10.90;99.90
45906;DHT22;31619;49.008;12.106;2023-04-28T07:51:29;10.80;99.90
45906;DHT22;31619;49.008;12.106;2023-04-28T07:53:55;10.80;99.90
45906;DHT22;31619;49.008;12.106;2023-04-28T07:56:21;10.80;99.90
45906;DHT22;31619;49.008;12.106;2023-04-28T07:58:47;10.70;99.90
45906;DHT22;31619;49.008;12.106;2023-04-28T08:01:12;10.70;99.90
45906;DHT22;31619;49.008;12.106;2023-04-28T08:03:38;10.70;99.90
45906;DHT22;31619;49.008;12.106;2023-04-28T08:06:04;10.80;99.90
45906;DHT22;31619;49.008;12.106;2023-04-28T08:08:30;10.80;99.90
45906;DHT22;31619;49.008;12.106;2023-04-28T08:10:55;10.80;99.90
45906;DHT22;31619;49.008;12.106;2023-04-28T08:13:22;10.80;99.90
45906;DHT22;31619;49.008;12.106;2023-04-28T08:15:48;10.80;99.90
45906;DHT22;31619;49.008;12.106;2023-04-28T08:18:14;10.80;99.90
45906;DHT22;31619;49.008;12.106;2023-04-28T08:20:39;10.80;99.90
45906;DHT22;31619;49.008;12.106;2023-04-28T08:23:06;10.80;99.90
45906;DHT22;31619;49.008;12.106;2023-04-28T08:25:32;10.80;99.90
45906;DHT22;31619;49.008;12.106;2023-04-28T08:27:58;10.80;99.90
45906;DHT22;31619;49.008;12.106;2023-04-28T08:30:23;10.80;99.90
45906;DHT22;31619;49.008;12.106;2023-04-28T08:32:49;10.80;99.90
45906;DHT22;31619;49.008;12.106;2023-04-28T08:35:14;10.90;99.90
45906;DHT22;31619;49.008;12.106;2023-04-28T08:37:40;10.90;99.90
45906;DHT22;31619;49.008;12.106;2023-04-28T08:40:06;11.10;99.90
45906;DHT22;31619;49.008;12.106;2023-04-28T08:42:35;11.20;99.90
45906;DHT22;31619;49.008;12.106;2023-04-28T08:45:03;11.30;99.90
45906;DHT22;31619;49.008;12.106;2023-04-28T08:47:40;11.40;99.90
45906;DHT22;31619;49.008;12.106;2023-04-28T08:50:11;11.50;99.90
45906;DHT22;31619;49.008;12.106;2023-04-28T08:52:41;11.60;99.90
45906;DHT22;31619;49.008;12.106;2023-04-28T08:55:09;11.70;99.90
45906;DHT22;31619;49.008;12.106;2023-04-28T08:57:42;11.60;99.90
45906;DHT22;31619;49.008;12.106;2023-04-28T09:00:09;11.70;99.90
45906;DHT22;31619;49.008;12.106;2023-04-28T09:02:35;11.60;99.90
45906;DHT22;31619;49.008;12.106;2023-04-28T09:05:05;11.60;99.90
45906;DHT22;31619;49.008;12.106;2023-04-28T09:07:31;11.60;99.90
45906;DHT22;31619;49.008;12.106;2023-04-28T09:10:35;11.60;99.90
45906;DHT22;31619;49.008;12.106;2023-04-28T09:13:04;11.50;99.90
45906;DHT22;31619;49.008;12.106;2023-04-28T09:17:57;11.30;99.90
45906;DHT22;31619;49.008;12.106;2023-04-28T09:20:25;11.20;99.90
45906;DHT22;31619;49.008;12.106;2023-04-28T09:22:52;11.10;99.90
45906;DHT22;31619;49.008;12.106;2023-04-28T09:25:19;11.10;99.90
45906;DHT22;31619;49.008;12.106;2023-04-28T09:27:47;11.10;99.90
45906;DHT22;31619;49.008;12.106;2023-04-28T09:30:13;11.00;99.90
45906;DHT22;31619;49.008;12.106;2023-04-28T09:32:39;11.00;99.90
45906;DHT22;31619;49.008;12.106;2023-04-28T09:35:05;11.00;99.90
45906;DHT22;31619;49.008;12.106;2023-04-28T09:37:32;10.90;99.90
45906;DHT22;31619;49.008;12.106;2023-04-28T09:40:07;10.90;99.90
45906;DHT22;31619;49.008;12.106;2023-04-28T09:42:43;11.00;99.90
45906;DHT22;31619;49.008;12.106;2023-04-28T09:45:14;11.00;99.90
45906;DHT22;31619;49.008;12.106;2023-04-28T09:47:42;11.00;99.90
45906;DHT22;31619;49.008;12.106;2023-04-28T09:50:09;11.10;99.90
45906;DHT22;31619;49.008;12.106;2023-04-28T09:52:44;11.10;99.90
45906;DHT22;31619;49.008;12.106;2023-04-28T09:55:10;11.10;99.90
45906;DHT22;31619;49.008;12.106;2023-04-28T09:57:37;11.20;99.90
45906;DHT22;31619;49.008;12.106;2023-04-28T10:00:05;11.20;99.90
45906;DHT22;31619;49.008;12.106;2023-04-28T10:02:34;11.30;99.90
45906;DHT22;31619;49.008;12.106;2023-04-28T10:05:00;11.40;99.90
45906;DHT22;31619;49.008;12.106;2023-04-28T10:07:26;11.40;99.90
45906;DHT22;31619;49.008;12.106;2023-04-28T10:09:52;11.40;99.90
45906;DHT22;31619;49.008;12.106;2023-04-28T10:12:20;11.40;99.90
45906;DHT22;31619;49.008;12.106;2023-04-28T10:14:47;11.30;99.90
45906;DHT22;31619;49.008;12.106;2023-04-28T10:17:22;11.20;99.90
45906;DHT22;31619;49.008;12.106;2023-04-28T10:19:52;11.20;99.90
45906;DHT22;31619;49.008;12.106;2023-04-28T10:22:47;11.20;99.90
45906;DHT22;31619;49.008;12.106;2023-04-28T10:25:34;11.20;99.90
45906;DHT22;31619;49.008;12.106;2023-04-28T10:28:05;11.20;99.90
45906;DHT22;31619;49.008;12.106;2023-04-28T10:30:31;11.20;99.90
45906;DHT22;31619;49.008;12.106;2023-04-28T10:38:14;10.90;99.90
45906;DHT22;31619;49.008;12.106;2023-04-28T10:40:41;10.80;99.90
45906;DHT22;31619;49.008;12.106;2023-04-28T10:43:09;10.80;99.90
45906;DHT22;31619;49.008;12.106;2023-04-28T10:48:21;10.80;99.90
45906;DHT22;31619;49.008;12.106;2023-04-28T10:58:39;10.50;99.90
45906;DHT22;31619;49.008;12.106;2023-04-28T11:04:05;10.40;99.90
45906;DHT22;31619;49.008;12.106;2023-04-28T11:06:45;10.50;99.90
45906;DHT22;31619;49.008;12.106;2023-04-28T11:11:39;10.70;99.90
45906;DHT22;31619;49.008;12.106;2023-04-28T11:22:00;11.30;99.90
45906;DHT22;31619;49.008;12.106;2023-04-28T11:24:27;11.40;99.90
45906;DHT22;31619;49.008;12.106;2023-04-28T11:26:57;11.50;99.90
45906;DHT22;31619;49.008;12.106;2023-04-28T11:29:33;11.50;99.90
45906;DHT22;31619;49.008;12.106;2023-04-28T11:32:01;11.60;99.90
45906;DHT22;31619;49.008;12.106;2023-04-28T11:34:26;11.70;99.90
45906;DHT22;31619;49.008;12.106;2023-04-28T11:36:53;11.70;99.90
45906;DHT22;31619;49.008;12.106;2023-04-28T11:39:25;11.70;99.90
45906;DHT22;31619;49.008;12.106;2023-04-28T11:41:53;11.50;99.90
45906;DHT22;31619;49.008;12.106;2023-04-28T11:44:24;11.30;99.90
45906;DHT22;31619;49.008;12.106;2023-04-28T11:46:55;11.20;99.90
45906;DHT22;31619;49.008;12.106;2023-04-28T11:49:25;11.20;99.90
45906;DHT22;31619;49.008;12.106;2023-04-28T11:51:53;11.20;99.90
45906;DHT22;31619;49.008;12.106;2023-04-28T11:54:26;11.30;99.90
45906;DHT22;31619;49.008;12.106;2023-04-28T11:56:53;11.30;99.90
45906;DHT22;31619;49.008;12.106;2023-04-28T11:59:37;11.30;99.90
45906;DHT22;31619;49.008;12.106;2023-04-28T12:02:05;11.30;99.90
45906;DHT22;31619;49.008;12.106;2023-04-28T12:04:38;11.30;99.90
45906;DHT22;31619;49.008;12.106;2023-04-28T12:09:38;11.40;99.90
45906;DHT22;31619;49.008;12.106;2023-04-28T12:12:12;11.40;99.90
45906;DHT22;31619;49.008;12.106;2023-04-28T12:17:27;11.40;99.90
45906;DHT22;31619;49.008;12.106;2023-04-28T12:19:57;11.50;99.90
45906;DHT22;31619;49.008;12.106;2023-04-28T12:22:24;11.50;99.90
45906;DHT22;31619;49.008;12.106;2023-04-28T12:27:32;11.50;99.90
45906;DHT22;31619;49.008;12.106;2023-04-28T12:29:57;11.60;99.90
45906;DHT22;31619;49.008;12.106;2023-04-28T12:32:41;11.70;99.90
45906;DHT22;31619;49.008;12.106;2023-04-28T12:35:10;11.80;99.90
45906;DHT22;31619;49.008;12.106;2023-04-28T12:37:36;11.90;99.90
45906;DHT22;31619;49.008;12.106;2023-04-28T12:40:03;12.00;99.90
45906;DHT22;31619;49.008;12.106;2023-04-28T12:42:29;12.10;99.90
45906;DHT22;31619;49.008;12.106;2023-04-28T12:44:55;12.20;99.90
45906;DHT22;31619;49.008;12.106;2023-04-28T12:47:20;12.20;99.90
45906;DHT22;31619;49.008;12.106;2023-04-28T12:49:48;12.20;99.90
45906;DHT22;31619;49.008;12.106;2023-04-28T12:52:19;12.20;99.90
45906;DHT22;31619;49.008;12.106;2023-04-28T12:54:46;12.20;99.90
45906;DHT22;31619;49.008;12.106;2023-04-28T12:57:14;12.20;99.90
45906;DHT22;31619;49.008;12.106;2023-04-28T12:59:40;12.20;99.90
45906;DHT22;31619;49.008;12.106;2023-04-28T13:02:07;12.20;99.90
45906;DHT22;31619;49.008;12.106;2023-04-28T13:04:32;12.20;99.90
45906;DHT22;31619;49.008;12.106;2023-04-28T13:06:58;12.20;99.90
45906;DHT22;31619;49.008;12.106;2023-04-28T13:09:24;12.30;99.90
45906;DHT22;31619;49.008;12.106;2023-04-28T13:11:50;12.30;99.90
45906;DHT22;31619;49.008;12.106;2023-04-28T13:14:18;12.40;99.90
45906;DHT22;31619;49.008;12.106;2023-04-28T13:16:44;12.50;99.90
45906;DHT22;31619;49.008;12.106;2023-04-28T13:19:10;12.50;99.90
45906;DHT22;31619;49.008;12.106;2023-04-28T13:21:41;12.40;99.90
45906;DHT22;31619;49.008;12.106;2023-04-28T13:24:08;12.50;99.90
45906;DHT22;31619;49.008;12.106;2023-04-28T13:26:34;12.70;99.90
45906;DHT22;31619;49.008;12.106;2023-04-28T13:29:00;12.80;99.90
45906;DHT22;31619;49.008;12.106;2023-04-28T13:31:29;12.90;99.90
45906;DHT22;31619;49.008;12.106;2023-04-28T13:33:56;13.00;99.90
45906;DHT22;31619;49.008;12.106;2023-04-28T13:36:21;13.20;99.90
45906;DHT22;31619;49.008;12.106;2023-04-28T13:38:48;13.40;99.90
45906;DHT22;31619;49.008;12.106;2023-04-28T13:41:15;13.50;99.90
45906;DHT22;31619;49.008;12.106;2023-04-28T13:43:41;13.60;99.90
45906;DHT22;31619;49.008;12.106;2023-04-28T13:46:07;13.60;99.90
45906;DHT22;31619;49.008;12.106;2023-04-28T13:48:37;13.60;99.90
45906;DHT22;31619;49.008;12.106;2023-04-28T13:51:03;13.60;99.90
45906;DHT22;31619;49.008;12.106;2023-04-28T13:53:29;13.60;99.90
45906;DHT22;31619;49.008;12.106;2023-04-28T13:55:55;13.50;99.90
45906;DHT22;31619;49.008;12.106;2023-04-28T13:58:28;13.40;99.90
45906;DHT22;31619;49.008;12.106;2023-04-28T14:00:55;13.30;99.90
45906;DHT22;31619;49.008;12.106;2023-04-28T14:03:22;13.30;99.90
45906;DHT22;31619;49.008;12.106;2023-04-28T14:05:50;13.30;99.90
45906;DHT22;31619;49.008;12.106;2023-04-28T14:08:16;13.20;99.90
45906;DHT22;31619;49.008;12.106;2023-04-28T14:10:42;13.30;99.90
45906;DHT22;31619;49.008;12.106;2023-04-28T14:13:07;13.30;99.90
45906;DHT22;31619;49.008;12.106;2023-04-28T14:15:33;13.30;99.90
45906;DHT22;31619;49.008;12.106;2023-04-28T14:17:59;13.20;99.90
45906;DHT22;31619;49.008;12.106;2023-04-28T14:20:24;13.20;99.90
45906;DHT22;31619;49.008;12.106;2023-04-28T14:22:50;13.10;99.90
45906;DHT22;31619;49.008;12.106;2023-04-28T14:25:16;13.00;99.90
45906;DHT22;31619;49.008;12.106;2023-04-28T14:27:43;13.00;99.90
45906;DHT22;31619;49.008;12.106;2023-04-28T14:30:09;12.90;99.90
45906;DHT22;31619;49.008;12.106;2023-04-28T14:32:35;12.90;99.90
45906;DHT22;31619;49.008;12.106;2023-04-28T14:35:03;12.90;99.90
45906;DHT22;31619;49.008;12.106;2023-04-28T14:37:31;12.90;99.90
45906;DHT22;31619;49.008;12.106;2023-04-28T14:39:57;12.90;99.90
45906;DHT22;31619;49.008;12.106;2023-04-28T14:42:27;12.80;99.90
45906;DHT22;31619;49.008;12.106;2023-04-28T14:44:54;12.80;99.90
45906;DHT22;31619;49.008;12.106;2023-04-28T14:47:19;12.70;99.90
45906;DHT22;31619;49.008;12.106;2023-04-28T14:49:46;12.60;99.90
45906;DHT22;31619;49.008;12.106;2023-04-28T14:52:12;12.60;99.90
45906;DHT22;31619;49.008;12.106;2023-04-28T14:54:37;12.70;99.90
45906;DHT22;31619;49.008;12.106;2023-04-28T14:57:03;12.70;99.90
45906;DHT22;31619;49.008;12.106;2023-04-28T14:59:29;12.70;99.90
45906;DHT22;31619;49.008;12.106;2023-04-28T15:01:55;12.70;99.90
45906;DHT22;31619;49.008;12.106;2023-04-28T15:04:21;12.70;99.90
45906;DHT22;31619;49.008;12.106;2023-04-28T15:06:53;12.70;99.90
45906;DHT22;31619;49.008;12.106;2023-04-28T15:09:19;12.70;99.90
45906;DHT22;31619;49.008;12.106;2023-04-28T15:11:44;12.70;99.90
45906;DHT22;31619;49.008;12.106;2023-04-28T15:14:10;12.70;99.90
45906;DHT22;31619;49.008;12.106;2023-04-28T15:16:36;12.80;99.90
45906;DHT22;31619;49.008;12.106;2023-04-28T15:19:01;12.70;99.90
45906;DHT22;31619;49.008;12.106;2023-04-28T15:21:27;12.70;99.90
45906;DHT22;31619;49.008;12.106;2023-04-28T15:23:53;12.80;99.90
45906;DHT22;31619;49.008;12.106;2023-04-28T15:26:19;12.80;99.90
45906;DHT22;31619;49.008;12.106;2023-04-28T15:28:45;12.80;99.90
45906;DHT22;31619;49.008;12.106;2023-04-28T15:31:11;12.80;99.90
45906;DHT22;31619;49.008;12.106;2023-04-28T15:33:36;12.80;99.90
45906;DHT22;31619;49.008;12.106;2023-04-28T15:36:02;12.80;99.90
45906;DHT22;31619;49.008;12.106;2023-04-28T15:38:28;12.80;99.90
45906;DHT22;31619;49.008;12.106;2023-04-28T15:40:56;12.80;99.90
45906;DHT22;31619;49.008;12.106;2023-04-28T15:43:22;12.90;99.90
45906;DHT22;31619;49.008;12.106;2023-04-28T15:45:49;13.00;99.90
45906;DHT22;31619;49.008;12.106;2023-04-28T15:48:16;13.00;99.90
45906;DHT22;31619;49.008;12.106;2023-04-28T15:50:42;13.00;99.90
45906;DHT22;31619;49.008;12.106;2023-04-28T15:53:10;13.00;99.90
45906;DHT22;31619;49.008;12.106;2023-04-28T15:55:36;13.00;99.90
45906;DHT22;31619;49.008;12.106;2023-04-28T15:58:02;13.10;99.90